Wisconsin Rapids, Wisconsin
Current Conditions -  °F | °C
As of 6:54 AM on Saturday 25 Oct 2014 (Local Time) from KISW Reporting Station
Clear Clear  
Wind Chill: 46°   Ceiling: Unl
Heat Index: 49°   Visibility: 10mi
Dew Point: 44°   Wind: 7mph
Humidity: 83%   Direction: 300°WNW
Pressure: 29.89"   Gusts: NA
Location:  44.39°N, 89.82°W
Report Text: KISW 251154Z AUTO 30006KT 10SM CLR 09/07 A2989 RMK AO2 SLP126 T00940067 10128 20094 52007
Loading
Personal Weather Stations






























Interactive Weather Map
Tropical Storm Tracking
New forecast layout! Learn more

10-Day Weather Forecast

Advertisements
Track Severe Weather on mobile